Colman, Argentina
Current Conditions -  °F | °C
As of 1:00 PM on Thursday 27 Nov 2014 (Local Time) from SAEZ Reporting Station
Clear Clear  
Wind Chill: 64°   Ceiling: Unl
Heat Index: 64°   Visibility: 6mi
Dew Point: 50°   Wind: 6mph
Humidity: 59%   Direction: NA
Pressure: 30"   Gusts: NA
Location:  36.46°S, 59.16°W
Report Text: SAEZ 271600Z VRB05KT CAVOK 18/10 Q1016
Loading
Personal Weather Stations






























Interactive Weather Map New forecast layout! Learn more

10-Day Weather Forecast

Advertisements
Track Severe Weather on mobile